sensor_id;sensor_type;location;lat;lon;timestamp;pressure;altitude;pressure_sealevel;temperature;humidity
15678;BME280;7939;50.814;6.368;2023-01-25T00:00:21;101878.19;;;7.34;58.71
15678;BME280;7939;50.814;6.368;2023-01-25T00:02:48;101879.91;;;7.35;58.72
15678;BME280;7939;50.814;6.368;2023-01-25T00:05:14;101879.22;;;7.37;59.03
15678;BME280;7939;50.814;6.368;2023-01-25T00:07:41;101874.56;;;7.28;58.74
15678;BME280;7939;50.814;6.368;2023-01-25T00:10:10;101867.78;;;7.29;58.38
15678;BME280;7939;50.814;6.368;2023-01-25T00:12:36;101867.66;;;7.26;58.61
15678;BME280;7939;50.814;6.368;2023-01-25T00:15:03;101862.50;;;7.24;58.40
15678;BME280;7939;50.814;6.368;2023-01-25T00:17:30;101870.19;;;7.26;57.83
15678;BME280;7939;50.814;6.368;2023-01-25T00:19:57;101869.34;;;7.25;57.81
15678;BME280;7939;50.814;6.368;2023-01-25T00:22:23;101866.06;;;7.28;57.88
15678;BME280;7939;50.814;6.368;2023-01-25T00:24:50;101858.34;;;7.26;58.16
15678;BME280;7939;50.814;6.368;2023-01-25T00:27:18;101856.09;;;7.33;58.77
15678;BME280;7939;50.814;6.368;2023-01-25T00:29:45;101859.50;;;7.33;58.21
15678;BME280;7939;50.814;6.368;2023-01-25T00:32:31;101851.75;;;7.30;58.07
15678;BME280;7939;50.814;6.368;2023-01-25T00:35:01;101854.38;;;7.32;58.68
15678;BME280;7939;50.814;6.368;2023-01-25T00:37:39;101847.59;;;7.32;58.42
15678;BME280;7939;50.814;6.368;2023-01-25T00:40:10;101845.81;;;7.29;58.40
15678;BME280;7939;50.814;6.368;2023-01-25T00:42:38;101849.13;;;7.28;59.04
15678;BME280;7939;50.814;6.368;2023-01-25T00:45:06;101843.84;;;7.24;58.91
15678;BME280;7939;50.814;6.368;2023-01-25T00:47:33;101839.91;;;7.30;58.79
15678;BME280;7939;50.814;6.368;2023-01-25T00:50:00;101831.31;;;7.28;59.10
15678;BME280;7939;50.814;6.368;2023-01-25T00:52:26;101829.00;;;7.33;59.04
15678;BME280;7939;50.814;6.368;2023-01-25T00:54:54;101831.66;;;7.17;57.96
15678;BME280;7939;50.814;6.368;2023-01-25T00:57:21;101832.59;;;7.19;58.15
15678;BME280;7939;50.814;6.368;2023-01-25T00:59:49;101822.75;;;7.26;58.33
15678;BME280;7939;50.814;6.368;2023-01-25T01:02:15;101825.47;;;7.29;58.53
15678;BME280;7939;50.814;6.368;2023-01-25T01:04:42;101826.16;;;7.27;58.62
15678;BME280;7939;50.814;6.368;2023-01-25T01:07:11;101821.66;;;7.21;58.11
15678;BME280;7939;50.814;6.368;2023-01-25T01:09:37;101822.13;;;7.13;59.10
15678;BME280;7939;50.814;6.368;2023-01-25T01:12:04;101824.66;;;6.95;58.04
15678;BME280;7939;50.814;6.368;2023-01-25T01:14:31;101819.06;;;7.02;59.20
15678;BME280;7939;50.814;6.368;2023-01-25T01:16:59;101817.41;;;7.02;59.13
15678;BME280;7939;50.814;6.368;2023-01-25T01:19:25;101825.59;;;6.97;59.24
15678;BME280;7939;50.814;6.368;2023-01-25T01:21:52;101819.81;;;6.99;58.90
15678;BME280;7939;50.814;6.368;2023-01-25T01:24:18;101816.59;;;7.03;59.75
15678;BME280;7939;50.814;6.368;2023-01-25T01:26:45;101815.06;;;7.07;58.63
15678;BME280;7939;50.814;6.368;2023-01-25T01:29:12;101812.75;;;7.12;59.45
15678;BME280;7939;50.814;6.368;2023-01-25T01:31:39;101816.22;;;7.14;59.11
15678;BME280;7939;50.814;6.368;2023-01-25T01:34:09;101817.09;;;7.14;58.62
15678;BME280;7939;50.814;6.368;2023-01-25T01:36:37;101829.16;;;7.18;58.46
15678;BME280;7939;50.814;6.368;2023-01-25T01:39:04;101819.81;;;7.17;58.54
15678;BME280;7939;50.814;6.368;2023-01-25T01:41:30;101819.22;;;7.23;59.80
15678;BME280;7939;50.814;6.368;2023-01-25T01:43:57;101819.13;;;7.21;58.51
15678;BME280;7939;50.814;6.368;2023-01-25T01:46:27;101817.44;;;7.22;59.33
15678;BME280;7939;50.814;6.368;2023-01-25T01:48:58;101814.91;;;7.22;59.10
15678;BME280;7939;50.814;6.368;2023-01-25T01:51:37;101812.59;;;7.09;58.58
15678;BME280;7939;50.814;6.368;2023-01-25T01:54:07;101816.00;;;7.09;59.38
15678;BME280;7939;50.814;6.368;2023-01-25T01:56:39;101820.44;;;7.13;59.10
15678;BME280;7939;50.814;6.368;2023-01-25T01:59:08;101822.19;;;7.14;59.24
15678;BME280;7939;50.814;6.368;2023-01-25T02:01:36;101816.97;;;7.11;59.33
15678;BME280;7939;50.814;6.368;2023-01-25T02:04:04;101812.88;;;7.15;58.87
15678;BME280;7939;50.814;6.368;2023-01-25T02:06:39;101812.81;;;7.13;58.52
15678;BME280;7939;50.814;6.368;2023-01-25T02:09:06;101813.84;;;7.17;59.56
15678;BME280;7939;50.814;6.368;2023-01-25T02:11:34;101811.22;;;7.15;58.94
15678;BME280;7939;50.814;6.368;2023-01-25T02:14:01;101819.66;;;7.14;58.58
15678;BME280;7939;50.814;6.368;2023-01-25T02:16:28;101815.66;;;7.19;59.54
15678;BME280;7939;50.814;6.368;2023-01-25T02:18:57;101819.81;;;7.17;59.28
15678;BME280;7939;50.814;6.368;2023-01-25T02:21:30;101808.09;;;7.21;59.48
15678;BME280;7939;50.814;6.368;2023-01-25T02:24:06;101809.06;;;7.23;59.06
15678;BME280;7939;50.814;6.368;2023-01-25T02:26:36;101806.41;;;7.21;59.92
15678;BME280;7939;50.814;6.368;2023-01-25T02:29:04;101799.38;;;7.16;59.79
15678;BME280;7939;50.814;6.368;2023-01-25T02:31:31;101796.81;;;7.16;59.58
15678;BME280;7939;50.814;6.368;2023-01-25T02:33:58;101799.94;;;7.10;59.74
15678;BME280;7939;50.814;6.368;2023-01-25T02:36:26;101803.47;;;6.94;59.45
15678;BME280;7939;50.814;6.368;2023-01-25T02:38:57;101806.50;;;6.87;59.74
15678;BME280;7939;50.814;6.368;2023-01-25T02:41:29;101803.91;;;6.86;59.79
15678;BME280;7939;50.814;6.368;2023-01-25T02:43:58;101802.16;;;7.02;59.82
15678;BME280;7939;50.814;6.368;2023-01-25T02:46:27;101798.22;;;7.09;59.04
15678;BME280;7939;50.814;6.368;2023-01-25T02:48:56;101794.50;;;7.02;59.90
15678;BME280;7939;50.814;6.368;2023-01-25T02:51:25;101794.16;;;6.95;59.37
15678;BME280;7939;50.814;6.368;2023-01-25T02:53:52;101798.38;;;6.94;58.99
15678;BME280;7939;50.814;6.368;2023-01-25T02:56:19;101795.03;;;6.95;59.74
15678;BME280;7939;50.814;6.368;2023-01-25T02:58:46;101794.16;;;6.95;59.71
15678;BME280;7939;50.814;6.368;2023-01-25T03:01:15;101793.53;;;6.99;59.54
15678;BME280;7939;50.814;6.368;2023-01-25T03:03:41;101793.53;;;6.99;59.10
15678;BME280;7939;50.814;6.368;2023-01-25T03:06:08;101789.88;;;6.94;59.14
15678;BME280;7939;50.814;6.368;2023-01-25T03:08:35;101788.56;;;7.02;59.53
15678;BME280;7939;50.814;6.368;2023-01-25T03:11:03;101785.09;;;7.00;60.27
15678;BME280;7939;50.814;6.368;2023-01-25T03:13:32;101782.38;;;6.97;60.25
15678;BME280;7939;50.814;6.368;2023-01-25T03:16:01;101787.84;;;7.05;59.99
15678;BME280;7939;50.814;6.368;2023-01-25T03:18:29;101789.31;;;6.99;59.95
15678;BME280;7939;50.814;6.368;2023-01-25T03:20:56;101792.94;;;7.05;59.32
15678;BME280;7939;50.814;6.368;2023-01-25T03:23:29;101792.25;;;7.09;59.29
15678;BME280;7939;50.814;6.368;2023-01-25T03:26:03;101790.47;;;7.06;59.30
15678;BME280;7939;50.814;6.368;2023-01-25T03:28:30;101789.88;;;7.12;59.99
15678;BME280;7939;50.814;6.368;2023-01-25T03:30:56;101797.56;;;7.13;59.28
15678;BME280;7939;50.814;6.368;2023-01-25T03:33:23;101793.34;;;7.14;59.64
15678;BME280;7939;50.814;6.368;2023-01-25T03:35:52;101793.41;;;7.15;59.57
15678;BME280;7939;50.814;6.368;2023-01-25T03:38:19;101788.44;;;7.17;60.31
15678;BME280;7939;50.814;6.368;2023-01-25T03:40:46;101789.28;;;7.17;59.28
15678;BME280;7939;50.814;6.368;2023-01-25T03:43:12;101796.91;;;7.17;60.17
15678;BME280;7939;50.814;6.368;2023-01-25T03:45:39;101785.06;;;7.18;59.79
15678;BME280;7939;50.814;6.368;2023-01-25T03:48:06;101786.81;;;7.19;59.57
15678;BME280;7939;50.814;6.368;2023-01-25T03:50:33;101788.56;;;7.20;60.35
15678;BME280;7939;50.814;6.368;2023-01-25T03:53:10;101785.13;;;7.19;60.15
15678;BME280;7939;50.814;6.368;2023-01-25T03:55:52;101785.25;;;7.22;59.69
15678;BME280;7939;50.814;6.368;2023-01-25T03:58:18;101788.56;;;7.20;59.19
15678;BME280;7939;50.814;6.368;2023-01-25T04:00:45;101780.19;;;7.22;59.33
15678;BME280;7939;50.814;6.368;2023-01-25T04:03:12;101771.69;;;7.22;59.61
15678;BME280;7939;50.814;6.368;2023-01-25T04:05:38;101776.78;;;7.22;60.26
15678;BME280;7939;50.814;6.368;2023-01-25T04:08:06;101770.00;;;7.22;60.01
15678;BME280;7939;50.814;6.368;2023-01-25T04:10:33;101769.13;;;7.22;59.43
15678;BME280;7939;50.814;6.368;2023-01-25T04:12:59;101764.84;;;7.21;60.29
15678;BME280;7939;50.814;6.368;2023-01-25T04:15:26;101770.00;;;7.22;60.57
15678;BME280;7939;50.814;6.368;2023-01-25T04:17:52;101766.69;;;7.23;60.24
15678;BME280;7939;50.814;6.368;2023-01-25T04:20:20;101753.13;;;7.23;59.90
15678;BME280;7939;50.814;6.368;2023-01-25T04:22:47;101751.44;;;7.23;59.83
15678;BME280;7939;50.814;6.368;2023-01-25T04:25:15;101758.09;;;7.21;59.52
15678;BME280;7939;50.814;6.368;2023-01-25T04:27:42;101749.66;;;7.22;60.66
15678;BME280;7939;50.814;6.368;2023-01-25T04:30:10;101741.25;;;7.23;59.47
15678;BME280;7939;50.814;6.368;2023-01-25T04:32:36;101740.41;;;7.23;60.60
15678;BME280;7939;50.814;6.368;2023-01-25T04:35:04;101739.59;;;7.24;60.10
15678;BME280;7939;50.814;6.368;2023-01-25T04:37:30;101737.84;;;7.23;60.28
15678;BME280;7939;50.814;6.368;2023-01-25T04:39:57;101733.63;;;7.23;59.86
15678;BME280;7939;50.814;6.368;2023-01-25T04:42:25;101729.47;;;7.25;60.21
15678;BME280;7939;50.814;6.368;2023-01-25T04:44:52;101725.19;;;7.24;59.97
15678;BME280;7939;50.814;6.368;2023-01-25T04:47:19;101718.44;;;7.25;59.56
15678;BME280;7939;50.814;6.368;2023-01-25T04:49:45;101719.25;;;7.24;60.15
15678;BME280;7939;50.814;6.368;2023-01-25T04:52:12;101723.38;;;7.22;59.99
15678;BME280;7939;50.814;6.368;2023-01-25T04:54:38;101720.94;;;7.23;60.73
15678;BME280;7939;50.814;6.368;2023-01-25T04:57:05;101723.47;;;7.23;60.01
15678;BME280;7939;50.814;6.368;2023-01-25T04:59:33;101726.88;;;7.24;59.88
15678;BME280;7939;50.814;6.368;2023-01-25T05:01:59;101726.88;;;7.24;59.88
15678;BME280;7939;50.814;6.368;2023-01-25T05:04:26;101725.19;;;7.24;60.22
15678;BME280;7939;50.814;6.368;2023-01-25T05:06:52;101728.63;;;7.25;60.52
15678;BME280;7939;50.814;6.368;2023-01-25T05:09:19;101715.91;;;7.25;60.05
15678;BME280;7939;50.814;6.368;2023-01-25T05:11:45;101717.56;;;7.24;59.59
15678;BME280;7939;50.814;6.368;2023-01-25T05:14:12;101710.75;;;7.23;59.62
15678;BME280;7939;50.814;6.368;2023-01-25T05:16:40;101718.38;;;7.23;60.85
15678;BME280;7939;50.814;6.368;2023-01-25T05:19:07;101719.25;;;7.24;60.54
15678;BME280;7939;50.814;6.368;2023-01-25T05:21:34;101716.72;;;7.24;60.41
15678;BME280;7939;50.814;6.368;2023-01-25T05:24:18;101712.50;;;7.24;60.49
15678;BME280;7939;50.814;6.368;2023-01-25T05:26:45;101713.34;;;7.25;60.22
15678;BME280;7939;50.814;6.368;2023-01-25T05:29:26;101704.84;;;7.24;60.08
15678;BME280;7939;50.814;6.368;2023-01-25T05:31:54;101702.31;;;7.24;60.17
15678;BME280;7939;50.814;6.368;2023-01-25T05:34:26;101699.78;;;7.24;60.61
15678;BME280;7939;50.814;6.368;2023-01-25T05:36:53;101695.50;;;7.23;60.20
15678;BME280;7939;50.814;6.368;2023-01-25T05:39:19;101700.63;;;7.25;60.51
15678;BME280;7939;50.814;6.368;2023-01-25T05:41:46;101695.56;;;7.25;59.60
15678;BME280;7939;50.814;6.368;2023-01-25T05:44:13;101700.63;;;7.25;60.50
15678;BME280;7939;50.814;6.368;2023-01-25T05:46:39;101698.91;;;7.24;60.86
15678;BME280;7939;50.814;6.368;2023-01-25T05:49:08;101694.69;;;7.24;60.90
15678;BME280;7939;50.814;6.368;2023-01-25T05:51:34;101693.00;;;7.25;59.73
15678;BME280;7939;50.814;6.368;2023-01-25T05:54:02;101692.09;;;7.23;60.34
15678;BME280;7939;50.814;6.368;2023-01-25T05:56:29;101695.56;;;7.25;60.22
15678;BME280;7939;50.814;6.368;2023-01-25T05:58:57;101686.19;;;7.24;60.18
15678;BME280;7939;50.814;6.368;2023-01-25T06:01:24;101687.88;;;7.23;60.08
15678;BME280;7939;50.814;6.368;2023-01-25T06:03:51;101684.53;;;7.24;61.01
15678;BME280;7939;50.814;6.368;2023-01-25T06:06:20;101691.28;;;7.24;60.95
15678;BME280;7939;50.814;6.368;2023-01-25T06:08:47;101693.81;;;7.24;60.43
15678;BME280;7939;50.814;6.368;2023-01-25T06:11:15;101681.91;;;7.23;60.73
15678;BME280;7939;50.814;6.368;2023-01-25T06:13:43;101683.66;;;7.24;59.76
15678;BME280;7939;50.814;6.368;2023-01-25T06:16:10;101683.66;;;7.24;60.87
15678;BME280;7939;50.814;6.368;2023-01-25T06:18:36;101684.53;;;7.24;60.22
15678;BME280;7939;50.814;6.368;2023-01-25T06:21:03;101679.38;;;7.23;60.27
15678;BME280;7939;50.814;6.368;2023-01-25T06:23:31;101679.28;;;7.21;60.11
15678;BME280;7939;50.814;6.368;2023-01-25T06:25:58;101692.09;;;7.23;59.82
15678;BME280;7939;50.814;6.368;2023-01-25T06:28:28;101686.91;;;7.21;60.80
15678;BME280;7939;50.814;6.368;2023-01-25T06:30:55;101693.72;;;7.22;60.67
15678;BME280;7939;50.814;6.368;2023-01-25T06:33:21;101689.44;;;7.21;60.80
15678;BME280;7939;50.814;6.368;2023-01-25T06:35:48;101692.16;;;7.24;59.69
15678;BME280;7939;50.814;6.368;2023-01-25T06:38:14;101688.75;;;7.24;60.09
15678;BME280;7939;50.814;6.368;2023-01-25T06:40:42;101685.31;;;7.23;59.84
15678;BME280;7939;50.814;6.368;2023-01-25T06:43:10;101685.91;;;7.18;59.88
15678;BME280;7939;50.814;6.368;2023-01-25T06:45:37;101686.72;;;7.17;60.30
15678;BME280;7939;50.814;6.368;2023-01-25T06:48:03;101681.28;;;7.09;59.52
15678;BME280;7939;50.814;6.368;2023-01-25T06:50:30;101678.81;;;7.11;60.36
15678;BME280;7939;50.814;6.368;2023-01-25T06:52:57;101682.16;;;7.10;60.27
15678;BME280;7939;50.814;6.368;2023-01-25T06:55:23;101681.28;;;7.09;59.80
15678;BME280;7939;50.814;6.368;2023-01-25T06:57:51;101687.09;;;7.07;60.75
15678;BME280;7939;50.814;6.368;2023-01-25T07:00:18;101683.91;;;7.11;60.96
15678;BME280;7939;50.814;6.368;2023-01-25T07:02:45;101683.81;;;7.09;60.65
15678;BME280;7939;50.814;6.368;2023-01-25T07:05:12;101687.38;;;7.13;60.71
15678;BME280;7939;50.814;6.368;2023-01-25T07:07:38;101690.84;;;7.15;59.80
15678;BME280;7939;50.814;6.368;2023-01-25T07:10:06;101684.09;;;7.15;60.47
15678;BME280;7939;50.814;6.368;2023-01-25T07:12:32;101686.63;;;7.15;59.86
15678;BME280;7939;50.814;6.368;2023-01-25T07:15:00;101680.75;;;7.16;59.86
15678;BME280;7939;50.814;6.368;2023-01-25T07:17:27;101685.81;;;7.16;60.78
15678;BME280;7939;50.814;6.368;2023-01-25T07:19:54;101685.06;;;7.17;60.74
15678;BME280;7939;50.814;6.368;2023-01-25T07:22:20;101679.88;;;7.16;60.68
15678;BME280;7939;50.814;6.368;2023-01-25T07:24:49;101676.47;;;7.15;60.75
15678;BME280;7939;50.814;6.368;2023-01-25T07:27:17;101679.00;;;7.15;59.75
15678;BME280;7939;50.814;6.368;2023-01-25T07:29:44;101679.88;;;7.16;59.81
15678;BME280;7939;50.814;6.368;2023-01-25T07:32:12;101684.09;;;7.15;60.75
15678;BME280;7939;50.814;6.368;2023-01-25T07:34:39;101686.56;;;7.14;59.74
15678;BME280;7939;50.814;6.368;2023-01-25T07:37:05;101684.03;;;7.14;60.82
15678;BME280;7939;50.814;6.368;2023-01-25T07:39:33;101684.91;;;7.14;59.82
15678;BME280;7939;50.814;6.368;2023-01-25T07:42:00;101690.00;;;7.14;60.83
15678;BME280;7939;50.814;6.368;2023-01-25T07:44:27;101691.66;;;7.14;60.23
15678;BME280;7939;50.814;6.368;2023-01-25T07:46:53;101691.59;;;7.12;60.05
15678;BME280;7939;50.814;6.368;2023-01-25T07:49:21;101686.50;;;7.12;60.67
15678;BME280;7939;50.814;6.368;2023-01-25T07:51:48;101695.00;;;7.13;60.40
15678;BME280;7939;50.814;6.368;2023-01-25T07:54:14;101687.38;;;7.13;59.79
15678;BME280;7939;50.814;6.368;2023-01-25T07:56:41;101691.66;;;7.14;60.94
15678;BME280;7939;50.814;6.368;2023-01-25T07:59:08;101686.47;;;7.11;60.70
15678;BME280;7939;50.814;6.368;2023-01-25T08:01:36;101685.56;;;7.10;60.05
15678;BME280;7939;50.814;6.368;2023-01-25T08:04:04;101687.16;;;7.08;60.24
15678;BME280;7939;50.814;6.368;2023-01-25T08:06:34;101683.75;;;7.08;59.71
15678;BME280;7939;50.814;6.368;2023-01-25T08:09:05;101681.88;;;7.03;60.01
15678;BME280;7939;50.814;6.368;2023-01-25T08:11:33;101681.00;;;7.03;60.71
15678;BME280;7939;50.814;6.368;2023-01-25T08:13:59;101682.88;;;7.07;61.00
15678;BME280;7939;50.814;6.368;2023-01-25T08:16:28;101687.16;;;7.08;60.17
15678;BME280;7939;50.814;6.368;2023-01-25T08:18:56;101681.22;;;7.08;60.06
15678;BME280;7939;50.814;6.368;2023-01-25T08:21:24;101681.28;;;7.09;60.63
15678;BME280;7939;50.814;6.368;2023-01-25T08:23:56;101678.72;;;7.09;60.98
15678;BME280;7939;50.814;6.368;2023-01-25T08:26:23;101667.69;;;7.09;60.89
15678;BME280;7939;50.814;6.368;2023-01-25T08:28:50;101673.75;;;7.11;59.98
15678;BME280;7939;50.814;6.368;2023-01-25T08:31:20;101669.44;;;7.10;60.70
15678;BME280;7939;50.814;6.368;2023-01-25T08:33:48;101668.66;;;7.11;60.89
15678;BME280;7939;50.814;6.368;2023-01-25T08:36:16;101665.22;;;7.10;60.37
15678;BME280;7939;50.814;6.368;2023-01-25T08:38:43;101667.75;;;7.10;60.96
15678;BME280;7939;50.814;6.368;2023-01-25T08:41:13;101667.00;;;7.11;60.48
15678;BME280;7939;50.814;6.368;2023-01-25T08:43:41;101667.00;;;7.11;60.60
15678;BME280;7939;50.814;6.368;2023-01-25T08:46:08;101666.03;;;7.09;60.78
15678;BME280;7939;50.814;6.368;2023-01-25T08:48:35;101665.91;;;7.06;60.71
15678;BME280;7939;50.814;6.368;2023-01-25T08:51:02;101670.19;;;7.07;60.55
15678;BME280;7939;50.814;6.368;2023-01-25T08:53:30;101668.50;;;7.08;60.81
15678;BME280;7939;50.814;6.368;2023-01-25T08:56:02;101656.66;;;7.08;60.01
15678;BME280;7939;50.814;6.368;2023-01-25T08:58:30;101654.88;;;7.06;60.58
15678;BME280;7939;50.814;6.368;2023-01-25T09:01:00;101658.41;;;7.09;60.67
15678;BME280;7939;50.814;6.368;2023-01-25T09:03:28;101657.53;;;7.09;60.90
15678;BME280;7939;50.814;6.368;2023-01-25T09:05:54;101658.41;;;7.09;60.42
15678;BME280;7939;50.814;6.368;2023-01-25T09:08:21;101654.88;;;7.06;60.39
15678;BME280;7939;50.814;6.368;2023-01-25T09:10:48;101661.69;;;7.07;59.99
15678;BME280;7939;50.814;6.368;2023-01-25T09:13:14;101658.34;;;7.08;60.30
15678;BME280;7939;50.814;6.368;2023-01-25T09:15:42;101651.31;;;7.02;60.72
15678;BME280;7939;50.814;6.368;2023-01-25T09:18:09;101640.44;;;7.05;60.07
15678;BME280;7939;50.814;6.368;2023-01-25T09:20:37;101651.53;;;7.07;61.13
15678;BME280;7939;50.814;6.368;2023-01-25T09:23:04;101648.91;;;7.05;60.26
15678;BME280;7939;50.814;6.368;2023-01-25T09:25:30;101646.38;;;7.05;59.94
15678;BME280;7939;50.814;6.368;2023-01-25T09:27:57;101648.91;;;7.05;60.91
15678;BME280;7939;50.814;6.368;2023-01-25T09:30:24;101655.75;;;7.06;60.22
15678;BME280;7939;50.814;6.368;2023-01-25T09:32:52;101649.78;;;7.06;60.56
15678;BME280;7939;50.814;6.368;2023-01-25T09:35:18;101647.31;;;7.07;60.22
15678;BME280;7939;50.814;6.368;2023-01-25T09:37:49;101648.16;;;7.08;60.84
15678;BME280;7939;50.814;6.368;2023-01-25T09:40:19;101643.03;;;7.06;60.75
15678;BME280;7939;50.814;6.368;2023-01-25T09:42:58;101641.41;;;7.08;61.15
15678;BME280;7939;50.814;6.368;2023-01-25T09:45:32;101638.81;;;7.07;60.28
15678;BME280;7939;50.814;6.368;2023-01-25T09:48:09;101640.53;;;7.08;60.45
15678;BME280;7939;50.814;6.368;2023-01-25T09:50:51;101632.91;;;7.08;61.10
15678;BME280;7939;50.814;6.368;2023-01-25T09:53:29;101629.50;;;7.07;60.30
15678;BME280;7939;50.814;6.368;2023-01-25T09:56:02;101620.16;;;7.06;60.33
15678;BME280;7939;50.814;6.368;2023-01-25T09:58:32;101624.44;;;7.07;59.90
15678;BME280;7939;50.814;6.368;2023-01-25T10:01:17;101620.16;;;7.06;60.58
15678;BME280;7939;50.814;6.368;2023-01-25T10:03:52;101621.94;;;7.09;60.70
15678;BME280;7939;50.814;6.368;2023-01-25T10:06:22;101609.22;;;7.09;60.56
15678;BME280;7939;50.814;6.368;2023-01-25T10:08:56;101612.66;;;7.09;60.08
15678;BME280;7939;50.814;6.368;2023-01-25T10:11:27;101604.16;;;7.09;60.48
15678;BME280;7939;50.814;6.368;2023-01-25T10:13:55;101600.78;;;7.10;59.91
15678;BME280;7939;50.814;6.368;2023-01-25T10:16:24;101599.94;;;7.09;60.01
15678;BME280;7939;50.814;6.368;2023-01-25T10:19:03;101597.38;;;7.09;61.13
15678;BME280;7939;50.814;6.368;2023-01-25T10:21:34;101599.06;;;7.09;60.17
15678;BME280;7939;50.814;6.368;2023-01-25T10:26:56;101596.59;;;7.10;60.52
15678;BME280;7939;50.814;6.368;2023-01-25T10:29:26;101594.94;;;7.11;60.25
15678;BME280;7939;50.814;6.368;2023-01-25T10:31:55;101591.44;;;7.09;60.78
15678;BME280;7939;50.814;6.368;2023-01-25T10:34:30;101593.97;;;7.09;60.30
15678;BME280;7939;50.814;6.368;2023-01-25T10:37:01;101590.56;;;7.08;60.49
15678;BME280;7939;50.814;6.368;2023-01-25T10:39:29;101598.19;;;7.08;60.09
15678;BME280;7939;50.814;6.368;2023-01-25T10:42:00;101585.50;;;7.08;60.79
15678;BME280;7939;50.814;6.368;2023-01-25T10:44:35;101582.13;;;7.09;60.93
15678;BME280;7939;50.814;6.368;2023-01-25T10:47:05;101578.78;;;7.10;60.50
15678;BME280;7939;50.814;6.368;2023-01-25T10:49:41;101566.03;;;7.09;60.69
15678;BME280;7939;50.814;6.368;2023-01-25T10:52:13;101570.28;;;7.10;60.65
15678;BME280;7939;50.814;6.368;2023-01-25T10:54:40;101569.38;;;7.08;59.97
15678;BME280;7939;50.814;6.368;2023-01-25T10:57:12;101567.69;;;7.08;60.69
15678;BME280;7939;50.814;6.368;2023-01-25T10:59:43;101562.56;;;7.07;61.05
15678;BME280;7939;50.814;6.368;2023-01-25T11:02:35;101550.72;;;7.07;60.22
15678;BME280;7939;50.814;6.368;2023-01-25T11:05:24;101559.09;;;7.05;59.93
15678;BME280;7939;50.814;6.368;2023-01-25T11:07:51;101558.28;;;7.06;60.50
15678;BME280;7939;50.814;6.368;2023-01-25T11:10:29;101549.69;;;7.03;60.74
15678;BME280;7939;50.814;6.368;2023-01-25T11:13:18;101548.91;;;7.05;60.48
15678;BME280;7939;50.814;6.368;2023-01-25T11:15:47;101548.06;;;7.04;60.98
15678;BME280;7939;50.814;6.368;2023-01-25T11:18:18;101549.78;;;7.05;61.14
15678;BME280;7939;50.814;6.368;2023-01-25T11:20:47;101545.50;;;7.04;61.14
15678;BME280;7939;50.814;6.368;2023-01-25T11:23:21;101540.53;;;7.07;60.28
15678;BME280;7939;50.814;6.368;2023-01-25T11:25:49;101533.72;;;7.06;61.11
15678;BME280;7939;50.814;6.368;2023-01-25T11:28:18;101536.31;;;7.08;60.24
15678;BME280;7939;50.814;6.368;2023-01-25T11:30:46;101528.69;;;7.08;61.35
15678;BME280;7939;50.814;6.368;2023-01-25T11:33:14;101525.28;;;7.07;60.27
15678;BME280;7939;50.814;6.368;2023-01-25T11:36:02;101523.63;;;7.08;61.19
15678;BME280;7939;50.814;6.368;2023-01-25T11:38:31;101516.81;;;7.07;61.31
15678;BME280;7939;50.814;6.368;2023-01-25T11:41:05;101510.91;;;7.08;60.65
15678;BME280;7939;50.814;6.368;2023-01-25T11:43:46;101501.56;;;7.07;60.45
15678;BME280;7939;50.814;6.368;2023-01-25T11:46:29;101489.72;;;7.07;60.25
15678;BME280;7939;50.814;6.368;2023-01-25T11:49:12;101484.69;;;7.09;61.09
15678;BME280;7939;50.814;6.368;2023-01-25T11:51:49;101483.88;;;7.10;60.40
15678;BME280;7939;50.814;6.368;2023-01-25T11:54:38;101474.50;;;7.09;61.09
15678;BME280;7939;50.814;6.368;2023-01-25T11:57:21;101463.53;;;7.10;60.31
15678;BME280;7939;50.814;6.368;2023-01-25T12:00:02;101454.19;;;7.09;61.19
15678;BME280;7939;50.814;6.368;2023-01-25T12:02:50;101450.81;;;7.10;60.80
15678;BME280;7939;50.814;6.368;2023-01-25T12:05:35;101446.59;;;7.10;60.98
15678;BME280;7939;50.814;6.368;2023-01-25T12:08:20;101447.41;;;7.09;61.14
15678;BME280;7939;50.814;6.368;2023-01-25T12:10:57;101439.78;;;7.09;61.30
15678;BME280;7939;50.814;6.368;2023-01-25T12:13:36;101440.66;;;7.10;61.29
15678;BME280;7939;50.814;6.368;2023-01-25T12:16:17;101426.28;;;7.10;60.35
15678;BME280;7939;50.814;6.368;2023-01-25T12:18:59;101420.31;;;7.10;60.34
15678;BME280;7939;50.814;6.368;2023-01-25T12:21:39;101410.25;;;7.11;60.42
15678;BME280;7939;50.814;6.368;2023-01-25T12:24:32;101403.38;;;7.10;61.22
15678;BME280;7939;50.814;6.368;2023-01-25T12:27:12;101406.84;;;7.11;60.88
15678;BME280;7939;50.814;6.368;2023-01-25T12:29:44;101388.09;;;7.09;61.35
15678;BME280;7939;50.814;6.368;2023-01-25T12:32:17;101383.97;;;7.11;61.11
15678;BME280;7939;50.814;6.368;2023-01-25T12:34:50;101377.19;;;7.11;60.87
15678;BME280;7939;50.814;6.368;2023-01-25T12:37:23;101372.09;;;7.11;60.85
15678;BME280;7939;50.814;6.368;2023-01-25T12:39:56;101362.81;;;7.12;60.73
15678;BME280;7939;50.814;6.368;2023-01-25T12:42:28;101359.41;;;7.11;60.65
15678;BME280;7939;50.814;6.368;2023-01-25T12:44:59;101356.03;;;7.12;61.17
15678;BME280;7939;50.814;6.368;2023-01-25T12:47:33;101344.19;;;7.13;61.55
15678;BME280;7939;50.814;6.368;2023-01-25T12:50:11;101337.38;;;7.12;61.52
15678;BME280;7939;50.814;6.368;2023-01-25T12:52:45;101334.84;;;7.12;60.41
15678;BME280;7939;50.814;6.368;2023-01-25T12:55:17;101338.25;;;7.12;60.55
15678;BME280;7939;50.814;6.368;2023-01-25T12:57:50;101335.72;;;7.12;60.38
15678;BME280;7939;50.814;6.368;2023-01-25T13:00:22;101330.69;;;7.14;61.00
15678;BME280;7939;50.814;6.368;2023-01-25T13:03:06;101323.88;;;7.13;61.02
15678;BME280;7939;50.814;6.368;2023-01-25T13:05:39;101310.34;;;7.14;61.29
15678;BME280;7939;50.814;6.368;2023-01-25T13:08:16;101307.78;;;7.14;61.38
15678;BME280;7939;50.814;6.368;2023-01-25T13:10:50;101295.13;;;7.15;61.08
15678;BME280;7939;50.814;6.368;2023-01-25T13:13:23;101284.16;;;7.16;61.45
15678;BME280;7939;50.814;6.368;2023-01-25T13:15:51;101284.16;;;7.16;61.13
15678;BME280;7939;50.814;6.368;2023-01-25T13:18:34;101267.19;;;7.15;60.91
15678;BME280;7939;50.814;6.368;2023-01-25T13:21:03;101268.13;;;7.17;60.35
15678;BME280;7939;50.814;6.368;2023-01-25T13:23:32;101265.50;;;7.16;60.82
15678;BME280;7939;50.814;6.368;2023-01-25T13:35:37;101256.19;;;7.16;60.88